Terminal Aerodrome Forecast
Issued by NWS

Home | Current Version | Previous Version | Graphics & Text | Print | Product List | Glossary On
Versions: 1 2 3 4 5 6 7 8 9 10 11 12 13 14 15 16 17 18 19 20 21 22
000
FTUS43 KABR 281139
TAFATY
TAF
KATY 281139Z 2812/2912 15006KT P6SM FEW080 BKN120 BKN250
     FM281400 19014G23KT P6SM SCT250
     FM290000 21009KT P6SM -SHRA VCTS SCT050CB BKN250
     FM290500 VRB06KT P6SM OVC250=

USA.gov is the U.S. government's official web portal to all federal, state and local government web resources and services.